Time;durP1;ratioP1;P1;durP2;ratioP2;P2;SDS_P1;SDS_P2;PMS_P1;PMS_P2;Temp;Humidity;BMP_temperature;BMP_pressure;BME280_temperature;BME280_humidity;BME280_pressure;Samples;Min_cycle;Max_cycle;Signal;HPM_P1;HPM_P2
2022/10/30 00:00:38;;;;;;;;;;;;;;;12.73;95.58;99261.17;1693674;84;20485;-84
2022/10/30 00:03:05;;;;;;;;;;;;;;;12.72;95.50;99268.68;1693645;84;21082;-86
2022/10/30 00:05:32;;;;;;;;;;;;;;;12.72;95.46;99262.08;1693620;84;20186;-86
2022/10/30 00:07:58;;;;;;;;;;;;;;;12.72;95.32;99263.41;1693515;84;20186;-85
2022/10/30 00:10:25;;;;;;;;;;;;;;;12.73;95.18;99261.17;1693484;84;20202;-84
2022/10/30 00:12:53;;;;;;;;;;;;;;;12.73;95.16;99265.97;1693592;84;20175;-82
2022/10/30 00:15:20;;;;;;;;;;;;;;;12.72;94.93;99264.72;1693861;84;21836;-83
2022/10/30 00:17:47;;;;;;;;;;;;;;;12.71;94.67;99265.20;1693545;84;20229;-81
2022/10/30 00:20:13;;;;;;;;;;;;;;;12.72;94.29;99270.00;1693788;84;20175;-85
2022/10/30 00:22:40;;;;;;;;;;;;;;;12.73;94.03;99271.73;1693530;84;20158;-86
2022/10/30 00:25:07;;;;;;;;;;;;;;;12.73;93.53;99278.33;1693755;84;20230;-85
2022/10/30 00:27:34;;;;;;;;;;;;;;;12.72;92.99;99280.56;1693814;84;21519;-83
2022/10/30 00:30:00;;;;;;;;;;;;;;;12.71;92.37;99274.44;1693633;84;20261;-81
2022/10/30 00:32:27;;;;;;;;;;;;;;;12.72;91.77;99277.45;1694163;84;20277;-83
2022/10/30 00:34:53;;;;;;;;;;;;;;;12.76;91.60;99268.91;1693622;84;20234;-86
2022/10/30 00:37:20;;;;;;;;;;;;;;;12.75;91.20;99258.83;1693656;84;20503;-84
2022/10/30 00:39:46;;;;;;;;;;;;;;;12.74;90.95;99262.42;1693722;84;21265;-86
2022/10/30 00:42:15;;;;;;;;;;;;;;;12.74;90.94;99263.73;1693857;84;20246;-86
2022/10/30 00:44:47;;;;;;;;;;;;;;;12.74;90.94;99263.73;1693526;84;20226;-87
2022/10/30 00:47:31;;;;;;;;;;;;;;;12.71;90.54;99265.64;1693709;84;20469;-83
2022/10/30 00:50:25;;;;;;;;;;;;;;;12.71;90.62;99257.72;1693584;84;20147;-86
2022/10/30 00:53:01;;;;;;;;;;;;;;;12.71;90.33;99259.04;1693530;84;21187;-86
2022/10/30 00:55:38;;;;;;;;;;;;;;;12.69;89.89;99251.19;1693800;84;20198;-86
2022/10/30 00:58:07;;;;;;;;;;;;;;;12.69;89.62;99262.22;1693608;84;20490;-85
2022/10/30 01:00:34;;;;;;;;;;;;;;;12.68;89.54;99262.70;1693707;84;20229;-86
2022/10/30 01:03:00;;;;;;;;;;;;;;;12.69;89.47;99256.47;1693730;84;20482;-84
2022/10/30 01:05:27;;;;;;;;;;;;;;;12.70;89.45;99274.50;1693649;84;21116;-86
2022/10/30 01:07:53;;;;;;;;;;;;;;;12.67;89.25;99275.49;1693698;84;20162;-84
2022/10/30 01:10:20;;;;;;;;;;;;;;;12.66;89.26;99268.96;1693746;84;20202;-85
2022/10/30 01:12:48;;;;;;;;;;;;;;;12.66;89.24;99267.64;1672113;84;20167;-84
2022/10/30 01:15:14;;;;;;;;;;;;;;;12.66;89.06;99272.92;1672289;84;20206;-86
2022/10/30 01:18:15;;;;;;;;;;;;;;;12.63;89.01;99276.10;1693606;84;21005;-86
2022/10/30 01:21:05;;;;;;;;;;;;;;;12.62;88.88;99275.73;1693989;84;20430;-83
2022/10/30 01:23:41;;;;;;;;;;;;;;;12.63;88.78;99256.78;1693647;84;20238;-85
2022/10/30 01:26:20;;;;;;;;;;;;;;;12.62;88.68;99262.53;1693574;84;20199;-82
2022/10/30 01:29:18;;;;;;;;;;;;;;;12.61;88.25;99258.17;1693046;84;20254;-87
2022/10/30 01:31:55;;;;;;;;;;;;;;;12.62;88.34;99241.86;1693507;84;21468;-83
2022/10/30 01:34:52;;;;;;;;;;;;;;;12.62;88.29;99232.18;1693221;84;20246;-87
2022/10/30 01:37:28;;;;;;;;;;;;;;;12.62;88.27;99232.63;1693812;84;20209;-86
2022/10/30 01:39:54;;;;;;;;;;;;;;;12.59;88.36;99229.68;1693327;84;20148;-85
2022/10/30 01:42:45;;;;;;;;;;;;;;;12.58;88.43;99224.48;1693871;84;20201;-86
2022/10/30 01:45:36;;;;;;;;;;;;;;;12.57;88.45;99246.03;1693752;84;21082;-85
2022/10/30 01:48:14;;;;;;;;;;;;;;;12.54;88.61;99239.60;1693511;84;20510;-85
2022/10/30 01:51:13;;;;;;;;;;;;;;;12.50;88.70;99237.17;1693273;84;20296;-83
2022/10/30 01:54:02;;;;;;;;;;;;;;;12.49;88.75;99253.48;1612058;89;20183;-84
2022/10/30 01:56:37;;;;;;;;;;;;;;;12.48;88.89;99259.67;1679318;84;20160;-86
2022/10/30 01:59:26;;;;;;;;;;;;;;;12.46;88.97;99261.53;1693616;84;21282;-83
2022/10/30 02:01:52;;;;;;;;;;;;;;;12.44;89.06;99261.60;1693658;84;20634;-86
2022/10/30 02:04:19;;;;;;;;;;;;;;;12.45;89.01;99265.09;1693429;84;20266;-84
2022/10/30 02:06:46;;;;;;;;;;;;;;;12.43;89.00;99259.03;1693579;84;20233;-85
2022/10/30 02:09:14;;;;;;;;;;;;;;;12.42;88.95;99257.30;1693521;84;20198;-86
2022/10/30 02:11:45;;;;;;;;;;;;;;;12.41;89.01;99255.61;1693610;84;21091;-85
2022/10/30 02:14:12;;;;;;;;;;;;;;;12.41;89.05;99237.14;1693670;84;20511;-87
2022/10/30 02:16:44;;;;;;;;;;;;;;;12.39;89.05;99246.89;1694344;84;20606;-86
2022/10/30 02:19:10;;;;;;;;;;;;;;;12.36;89.07;99266.38;1695932;84;20143;-82
2022/10/30 02:21:37;;;;;;;;;;;;;;;12.35;89.16;99270.40;1697155;84;20206;-77
2022/10/30 02:24:04;;;;;;;;;;;;;;;12.35;89.22;99276.99;1696423;84;21120;-82
2022/10/30 02:26:32;;;;;;;;;;;;;;;12.34;89.17;99259.44;1696658;84;20416;-82
2022/10/30 02:28:58;;;;;;;;;;;;;;;12.33;89.15;99265.66;1696518;84;20598;-84
2022/10/30 02:31:25;;;;;;;;;;;;;;;12.32;89.03;99274.02;1696000;84;20504;-84
2022/10/30 02:33:51;;;;;;;;;;;;;;;12.33;88.94;99281.48;1694512;84;20219;-85
2022/10/30 02:36:18;;;;;;;;;;;;;;;12.31;88.89;99269.69;1693833;84;21146;-86
2022/10/30 02:38:45;;;;;;;;;;;;;;;12.30;88.81;99285.58;1693695;84;20203;-86
2022/10/30 02:41:12;;;;;;;;;;;;;;;12.26;88.90;99283.08;1693723;84;20201;-86
2022/10/30 02:43:39;;;;;;;;;;;;;;;12.25;88.95;99293.69;1693678;84;20199;-85
2022/10/30 02:46:06;;;;;;;;;;;;;;;12.23;88.98;99292.45;1693727;84;20214;-86
2022/10/30 02:48:34;;;;;;;;;;;;;;;12.22;89.03;99286.80;1693876;84;21804;-86
2022/10/30 02:51:01;;;;;;;;;;;;;;;12.18;89.12;99289.16;1693880;84;20647;-83
2022/10/30 02:53:28;;;;;;;;;;;;;;;12.17;89.11;99281.31;1693712;84;20218;-86
2022/10/30 02:55:55;;;;;;;;;;;;;;;12.17;89.05;99280.87;1672053;84;20206;-82
2022/10/30 02:58:22;;;;;;;;;;;;;;;12.17;88.98;99285.27;1693811;84;20186;-86
2022/10/30 03:00:48;;;;;;;;;;;;;;;12.15;88.92;99290.61;1693663;84;22304;-86
2022/10/30 03:03:15;;;;;;;;;;;;;;;12.14;89.01;99298.14;1693929;84;20202;-85
2022/10/30 03:05:41;;;;;;;;;;;;;;;12.14;88.96;99290.23;1693769;84;20220;-86
2022/10/30 03:08:08;;;;;;;;;;;;;;;12.14;88.90;99298.14;1671781;84;20742;-86
2022/10/30 03:10:34;;;;;;;;;;;;;;;12.13;88.96;99281.06;1693722;84;20152;-87
2022/10/30 03:13:01;;;;;;;;;;;;;;;12.11;88.99;99291.69;1693770;84;21134;-87
2022/10/30 03:15:28;;;;;;;;;;;;;;;12.09;89.03;99284.31;1693733;84;20222;-86
2022/10/30 03:17:54;;;;;;;;;;;;;;;12.10;88.99;99281.20;1693628;84;20210;-86
2022/10/30 03:20:21;;;;;;;;;;;;;;;12.08;89.00;99281.27;1693704;84;20553;-84
2022/10/30 03:22:48;;;;;;;;;;;;;;;12.06;89.03;99279.17;1693653;84;20198;-85
2022/10/30 03:25:22;;;;;;;;;;;;;;;12.06;89.07;99283.13;1693801;84;21249;-87
2022/10/30 03:27:45;;;;;;;;;;;;;;;12.04;89.07;99281.02;1693374;84;20226;-83
2022/10/30 03:30:12;;;;;;;;;;;;;;;12.03;89.18;99283.25;1699075;84;20218;-86
2022/10/30 03:32:39;;;;;;;;;;;;;;;11.99;89.35;99283.01;1699140;84;20524;-81
2022/10/30 03:35:06;;;;;;;;;;;;;;;11.96;89.45;99283.98;1699515;84;21100;-86
2022/10/30 03:37:34;;;;;;;;;;;;;;;11.97;89.58;99282.20;1699175;84;21864;-86
2022/10/30 03:40:01;;;;;;;;;;;;;;;11.95;89.67;99289.33;1699327;84;20578;-87
2022/10/30 03:42:27;;;;;;;;;;;;;;;11.94;89.77;99294.22;1699213;84;20508;-86
2022/10/30 03:44:53;;;;;;;;;;;;;;;11.96;89.87;99295.00;1699320;84;20217;-86
2022/10/30 03:47:20;;;;;;;;;;;;;;;11.96;89.93;99308.19;1699295;84;20178;-86
2022/10/30 03:49:47;;;;;;;;;;;;;;;11.97;89.98;99301.97;1699013;84;21645;-85
2022/10/30 03:52:16;;;;;;;;;;;;;;;11.95;89.93;99295.44;1699006;84;21140;-87
2022/10/30 03:54:43;;;;;;;;;;;;;;;11.97;89.89;99298.02;1699127;84;20523;-85
2022/10/30 03:57:10;;;;;;;;;;;;;;;11.99;89.66;99288.28;1699352;84;20710;-85
2022/10/30 03:59:41;;;;;;;;;;;;;;;12.02;89.15;99285.48;1697690;84;20590;-86
2022/10/30 04:02:27;;;;;;;;;;;;;;;12.01;88.98;99295.19;1696385;84;21323;-86
2022/10/30 04:04:55;;;;;;;;;;;;;;;12.00;88.16;99292.61;1699049;84;20143;-83
2022/10/30 04:07:22;;;;;;;;;;;;;;;11.99;87.83;99288.28;1699496;84;20167;-85
2022/10/30 04:09:49;;;;;;;;;;;;;;;11.99;87.51;99285.64;1699173;84;20147;-84
2022/10/30 04:12:15;;;;;;;;;;;;;;;12.00;87.41;99289.53;1699463;84;20189;-86
2022/10/30 04:14:42;;;;;;;;;;;;;;;11.99;87.08;99290.92;1699058;84;22026;-83
2022/10/30 04:17:09;;;;;;;;;;;;;;;11.95;86.97;99283.58;1699040;84;20575;-85
2022/10/30 04:19:36;;;;;;;;;;;;;;;11.95;86.31;99288.00;1699226;84;20632;-85
2022/10/30 04:22:04;;;;;;;;;;;;;;;11.94;85.91;99277.93;1699209;84;21390;-86
2022/10/30 04:24:30;;;;;;;;;;;;;;;11.96;85.87;99285.77;1699440;84;20210;-85
2022/10/30 04:26:57;;;;;;;;;;;;;;;11.96;86.12;99283.98;1699120;84;21120;-84
2022/10/30 04:29:24;;;;;;;;;;;;;;;11.98;85.97;99287.88;1699202;84;20226;-84
2022/10/30 04:31:51;;;;;;;;;;;;;;;11.97;85.44;99288.78;1699330;84;20205;-87
2022/10/30 04:34:17;;;;;;;;;;;;;;;11.94;84.93;99290.27;1699590;84;20719;-85
2022/10/30 04:36:44;;;;;;;;;;;;;;;11.94;84.95;99298.17;1699405;84;20376;-84
2022/10/30 04:39:11;;;;;;;;;;;;;;;11.96;85.10;99304.23;1699308;84;21198;-85
2022/10/30 04:41:38;;;;;;;;;;;;;;;11.98;85.16;99303.22;1699475;84;20590;-84
2022/10/30 04:44:06;;;;;;;;;;;;;;;11.99;84.97;99306.73;1698943;84;20210;-86
2022/10/30 04:46:32;;;;;;;;;;;;;;;12.01;84.61;99308.84;1699514;84;20636;-86
2022/10/30 04:49:01;;;;;;;;;;;;;;;11.99;83.18;99312.02;1698497;84;20225;-83
2022/10/30 04:51:27;;;;;;;;;;;;;;;11.97;81.88;99311.20;1699303;84;21555;-85
2022/10/30 04:53:54;;;;;;;;;;;;;;;11.97;82.02;99316.03;1699201;84;20199;-85
2022/10/30 04:56:21;;;;;;;;;;;;;;;11.99;82.15;99308.06;1699753;84;20206;-85
2022/10/30 04:58:47;;;;;;;;;;;;;;;11.99;82.51;99314.65;1699608;84;20214;-86
2022/10/30 05:01:14;;;;;;;;;;;;;;;12.01;82.85;99319.39;1699415;84;20230;-87
2022/10/30 05:03:41;;;;;;;;;;;;;;;12.02;83.11;99319.77;1699319;84;21129;-85
2022/10/30 05:06:25;;;;;;;;;;;;;;;12.01;83.24;99326.83;1699331;84;20561;-86
2022/10/30 05:08:54;;;;;;;;;;;;;;;12.02;82.80;99327.67;1696714;84;20127;-85
2022/10/30 05:11:25;;;;;;;;;;;;;;;12.00;82.29;99326.89;1694080;84;20198;-86
2022/10/30 05:13:52;;;;;;;;;;;;;;;11.99;81.91;99336.59;1699376;84;20170;-83
2022/10/30 05:16:18;;;;;;;;;;;;;;;11.99;81.92;99340.55;1699389;84;21622;-83
2022/10/30 05:18:46;;;;;;;;;;;;;;;12.00;81.98;99339.63;1699325;84;20222;-84
2022/10/30 05:21:12;;;;;;;;;;;;;;;11.99;82.09;99347.61;1669497;84;20170;-85
2022/10/30 05:23:41;;;;;;;;;;;;;;;12.00;81.66;99349.30;1699424;84;20162;-81
2022/10/30 05:26:07;;;;;;;;;;;;;;;11.99;81.46;99351.09;1699443;84;20198;-85
2022/10/30 05:28:35;;;;;;;;;;;;;;;11.98;80.26;99340.14;1699345;84;21158;-83
2022/10/30 05:31:01;;;;;;;;;;;;;;;11.96;78.08;99345.10;1698980;84;20229;-86
2022/10/30 05:33:41;;;;;;;;;;;;;;;11.94;77.49;99350.91;1694822;84;20209;-85
2022/10/30 05:36:08;;;;;;;;;;;;;;;11.92;77.48;99355.36;1699097;84;20663;-87
2022/10/30 05:38:36;;;;;;;;;;;;;;;11.88;77.11;99362.08;1699005;84;20217;-86
2022/10/30 05:41:03;;;;;;;;;;;;;;;11.89;76.89;99362.92;1699152;84;22154;-87
2022/10/30 05:43:30;;;;;;;;;;;;;;;11.93;76.79;99366.31;1699251;84;21048;-87
2022/10/30 05:45:57;;;;;;;;;;;;;;;11.94;76.86;99370.20;1699173;84;20661;-87
2022/10/30 05:48:23;;;;;;;;;;;;;;;11.96;76.77;99383.33;1699203;84;20194;-87
2022/10/30 05:50:51;;;;;;;;;;;;;;;11.97;76.36;99377.11;1699430;84;20209;-86
2022/10/30 05:53:19;;;;;;;;;;;;;;;11.97;76.24;99385.91;1698262;84;21895;-87
2022/10/30 05:55:45;;;;;;;;;;;;;;;11.98;76.17;99380.16;1698986;84;20197;-86
2022/10/30 05:58:13;;;;;;;;;;;;;;;11.97;75.06;99387.66;1697800;84;20198;-87
2022/10/30 06:00:43;;;;;;;;;;;;;;;11.97;75.32;99392.94;1699091;84;20131;-86
2022/10/30 06:03:11;;;;;;;;;;;;;;;12.00;75.66;99388.86;1668975;84;20194;-87
2022/10/30 06:05:43;;;;;;;;;;;;;;;12.01;74.66;99390.58;1699565;84;20229;-85
2022/10/30 06:08:09;;;;;;;;;;;;;;;12.01;74.83;99393.22;1699021;84;20218;-82
2022/10/30 06:10:36;;;;;;;;;;;;;;;12.01;74.96;99389.27;1699235;84;20213;-85
2022/10/30 06:13:09;;;;;;;;;;;;;;;12.02;75.22;99398.43;1698222;84;20210;-84
2022/10/30 06:15:41;;;;;;;;;;;;;;;12.03;75.32;99400.13;1698779;84;20482;-83
2022/10/30 06:18:09;;;;;;;;;;;;;;;12.05;74.61;99398.74;1699036;84;21159;-83
2022/10/30 06:20:37;;;;;;;;;;;;;;;12.05;74.47;99396.11;1698786;84;20481;-86
2022/10/30 06:23:22;;;;;;;;;;;;;;;12.04;74.11;99403.64;1699161;84;20219;-85
2022/10/30 06:25:50;;;;;;;;;;;;;;;12.02;73.34;99401.50;1698362;84;21111;-85
2022/10/30 06:28:36;;;;;;;;;;;;;;;11.99;72.99;99401.66;1697975;84;20178;-86
2022/10/30 06:31:04;;;;;;;;;;;;;;;11.97;72.93;99390.30;1693421;84;21204;-86
2022/10/30 06:33:31;;;;;;;;;;;;;;;11.97;72.91;99395.57;1693439;84;20467;-85
2022/10/30 06:35:59;;;;;;;;;;;;;;;11.95;72.44;99397.42;1693629;84;20984;-84
2022/10/30 06:38:26;;;;;;;;;;;;;;;11.96;72.36;99392.56;1693885;84;20258;-84
2022/10/30 06:40:53;;;;;;;;;;;;;;;11.97;72.28;99395.13;1693553;84;20445;-84
2022/10/30 06:43:22;;;;;;;;;;;;;;;11.99;72.60;99396.39;1689730;84;21268;-87
2022/10/30 06:45:50;;;;;;;;;;;;;;;12.00;72.39;99393.69;1692802;84;20201;-85
2022/10/30 06:48:17;;;;;;;;;;;;;;;12.03;72.36;99408.51;1693897;84;20198;-85
2022/10/30 06:50:48;;;;;;;;;;;;;;;12.05;72.66;99398.74;1693489;84;20446;-86
2022/10/30 06:53:15;;;;;;;;;;;;;;;12.06;72.15;99397.83;1672121;84;20209;-86
2022/10/30 06:55:42;;;;;;;;;;;;;;;12.05;72.42;99404.90;1693607;84;21094;-85
2022/10/30 06:58:10;;;;;;;;;;;;;;;12.03;72.56;99397.95;1691671;84;20214;-86
2022/10/30 07:00:39;;;;;;;;;;;;;;;12.01;72.69;99407.72;1692182;84;20219;-85
2022/10/30 07:03:07;;;;;;;;;;;;;;;11.99;73.14;99415.69;1659806;84;20982;-86
2022/10/30 07:05:35;;;;;;;;;;;;;;;11.98;73.03;99406.53;1694011;84;20153;-86
2022/10/30 07:08:02;;;;;;;;;;;;;;;11.96;73.10;99410.55;1693431;84;21852;-86
2022/10/30 07:10:29;;;;;;;;;;;;;;;11.96;73.21;99414.97;1693441;84;21054;-86
2022/10/30 07:13:07;;;;;;;;;;;;;;;11.96;73.06;99418.45;1691273;84;20557;-85
2022/10/30 07:15:35;;;;;;;;;;;;;;;11.95;73.45;99419.83;1692751;84;20714;-86
2022/10/30 07:18:05;;;;;;;;;;;;;;;11.94;73.44;99418.14;1692832;84;20254;-85
2022/10/30 07:20:35;;;;;;;;;;;;;;;11.97;73.52;99419.30;1693689;84;20164;-85
2022/10/30 07:23:02;;;;;;;;;;;;;;;11.98;73.26;99421.03;1693725;84;20198;-84
2022/10/30 07:25:29;;;;;;;;;;;;;;;11.99;72.88;99406.94;1693960;84;20614;-84
2022/10/30 07:27:57;;;;;;;;;;;;;;;11.97;72.60;99407.00;1692671;84;20190;-85
2022/10/30 07:30:35;;;;;;;;;;;;;;;11.95;72.24;99406.65;1697392;84;20229;-87
2022/10/30 07:33:17;;;;;;;;;;;;;;;11.94;72.20;99412.39;1700095;80;21140;-87
2022/10/30 07:36:01;;;;;;;;;;;;;;;11.95;72.53;99406.65;1703727;80;20127;-81
2022/10/30 07:38:29;;;;;;;;;;;;;;;11.94;72.10;99395.73;1700130;83;20217;-82
2022/10/30 07:40:57;;;;;;;;;;;;;;;11.93;71.49;99406.72;1698798;84;20225;-87
2022/10/30 07:43:34;;;;;;;;;;;;;;;11.91;71.45;99408.56;1635970;87;20218;-86
2022/10/30 07:46:04;;;;;;;;;;;;;;;11.89;71.08;99396.73;1695183;84;21805;-86
2022/10/30 07:48:34;;;;;;;;;;;;;;;11.92;71.17;99405.45;1699616;84;20293;-86
2022/10/30 07:51:10;;;;;;;;;;;;;;;11.93;71.11;99406.72;1697686;84;20145;-86
2022/10/30 07:53:38;;;;;;;;;;;;;;;11.96;70.91;99409.70;1699487;84;20139;-86
2022/10/30 07:56:05;;;;;;;;;;;;;;;11.96;70.46;99407.91;1699577;84;20678;-87
2022/10/30 07:58:39;;;;;;;;;;;;;;;11.98;69.44;99400.78;1694214;84;22038;-86
2022/10/30 08:01:24;;;;;;;;;;;;;;;11.97;69.69;99398.20;1699419;84;20152;-86
2022/10/30 08:03:50;;;;;;;;;;;;;;;11.95;69.91;99400.06;1669472;84;20452;-84
2022/10/30 08:06:25;;;;;;;;;;;;;;;11.93;70.44;99398.80;1699061;84;20649;-87
2022/10/30 08:08:51;;;;;;;;;;;;;;;11.94;70.77;99407.13;1699603;84;20452;-84
2022/10/30 08:11:23;;;;;;;;;;;;;;;11.97;71.31;99408.75;1699517;84;21225;-87
2022/10/30 08:13:50;;;;;;;;;;;;;;;12.01;70.82;99405.09;1699285;84;20495;-87
2022/10/30 08:16:17;;;;;;;;;;;;;;;12.01;71.00;99405.94;1699415;84;20944;-85
2022/10/30 08:18:44;;;;;;;;;;;;;;;12.02;69.97;99412.94;1699373;84;20167;-85
2022/10/30 08:21:10;;;;;;;;;;;;;;;11.99;69.87;99410.42;1699225;84;20145;-82
2022/10/30 08:23:39;;;;;;;;;;;;;;;11.97;70.54;99415.34;1698761;84;21262;-84
2022/10/30 08:26:07;;;;;;;;;;;;;;;11.97;70.52;99419.30;1698855;84;20183;-83
2022/10/30 08:28:35;;;;;;;;;;;;;;;11.96;70.77;99413.18;1699504;84;20189;-87
2022/10/30 08:31:04;;;;;;;;;;;;;;;11.98;70.14;99415.76;1694725;84;20202;-86
2022/10/30 08:33:38;;;;;;;;;;;;;;;12.00;70.57;99427.09;1666356;84;20211;-83
2022/10/30 08:36:08;;;;;;;;;;;;;;;11.99;70.72;99420.13;1690586;84;21149;-86
2022/10/30 08:38:35;;;;;;;;;;;;;;;11.98;70.81;99427.63;1693767;84;20223;-85
2022/10/30 08:41:15;;;;;;;;;;;;;;;11.98;70.97;99424.98;1671979;84;20128;-83
2022/10/30 08:43:43;;;;;;;;;;;;;;;11.98;70.67;99423.67;1692800;84;20222;-85
2022/10/30 08:46:09;;;;;;;;;;;;;;;12.01;70.73;99428.81;1693675;84;20162;-86
2022/10/30 08:48:36;;;;;;;;;;;;;;;12.01;70.71;99427.50;1693613;84;21570;-82
2022/10/30 08:51:03;;;;;;;;;;;;;;;12.01;70.07;99432.77;1693415;84;20234;-81
2022/10/30 08:53:32;;;;;;;;;;;;;;;11.97;69.47;99433.80;1693356;84;20349;-84
2022/10/30 08:55:59;;;;;;;;;;;;;;;11.95;69.47;99438.29;1693647;84;20206;-84
2022/10/30 08:58:27;;;;;;;;;;;;;;;11.95;69.62;99439.61;1693079;84;20489;-84
2022/10/30 09:00:54;;;;;;;;;;;;;;;11.94;69.49;99439.23;1693845;84;21241;-83
2022/10/30 09:03:41;;;;;;;;;;;;;;;11.97;69.71;99435.13;1693656;84;20186;-86
2022/10/30 09:06:14;;;;;;;;;;;;;;;12.00;69.65;99432.36;1691027;84;20241;-85
2022/10/30 09:08:42;;;;;;;;;;;;;;;12.01;69.17;99434.09;1690037;84;21315;-87
2022/10/30 09:11:14;;;;;;;;;;;;;;;12.03;68.94;99433.56;1679724;84;20538;-84
2022/10/30 09:13:41;;;;;;;;;;;;;;;12.01;68.98;99423.55;1693654;84;21919;-82
2022/10/30 09:16:07;;;;;;;;;;;;;;;12.01;69.16;99424.39;1693433;84;20183;-82
2022/10/30 09:18:35;;;;;;;;;;;;;;;12.01;69.39;99426.18;1694114;84;20445;-86
2022/10/30 09:21:03;;;;;;;;;;;;;;;12.04;69.86;99431.33;1693690;84;20560;-82
2022/10/30 09:23:31;;;;;;;;;;;;;;;12.05;69.35;99425.11;1693678;84;20171;-86
2022/10/30 09:26:00;;;;;;;;;;;;;;;12.06;69.23;99429.48;1690429;84;21168;-84
2022/10/30 09:28:47;;;;;;;;;;;;;;;12.08;69.37;99423.67;1693119;84;20218;-82
2022/10/30 09:31:33;;;;;;;;;;;;;;;12.08;69.54;99423.20;1694461;84;20651;-86
2022/10/30 09:34:01;;;;;;;;;;;;;;;12.10;68.85;99421.82;1699031;84;20198;-87
2022/10/30 09:36:42;;;;;;;;;;;;;;;12.11;68.66;99422.23;1699104;84;20249;-83
2022/10/30 09:39:08;;;;;;;;;;;;;;;12.11;69.02;99432.78;1698982;84;21169;-87
2022/10/30 09:42:04;;;;;;;;;;;;;;;12.11;69.41;99422.70;1699175;84;20206;-86
2022/10/30 09:44:54;;;;;;;;;;;;;;;12.11;68.52;99426.66;1698837;84;20214;-87
2022/10/30 09:47:42;;;;;;;;;;;;;;;12.14;69.09;99426.06;1699058;84;20222;-87
2022/10/30 09:50:24;;;;;;;;;;;;;;;12.15;69.38;99421.16;1669399;84;20143;-87
2022/10/30 09:53:10;;;;;;;;;;;;;;;12.16;69.04;99427.31;1644391;84;21247;-84
2022/10/30 09:55:52;;;;;;;;;;;;;;;12.17;68.89;99423.30;1699153;84;20151;-87
2022/10/30 09:58:28;;;;;;;;;;;;;;;12.20;69.27;99415.23;1690716;84;20226;-84
2022/10/30 10:01:13;;;;;;;;;;;;;;;12.23;69.50;99418.20;1699650;84;20139;-86
2022/10/30 10:03:56;;;;;;;;;;;;;;;12.24;68.60;99407.59;1699052;84;20214;-86
2022/10/30 10:06:24;;;;;;;;;;;;;;;12.26;68.78;99418.93;1693956;84;21633;-85
2022/10/30 10:09:02;;;;;;;;;;;;;;;12.28;68.42;99418.02;1697344;84;20223;-87
2022/10/30 10:11:49;;;;;;;;;;;;;;;12.25;67.80;99414.59;1699130;84;20175;-84
2022/10/30 10:14:20;;;;;;;;;;;;;;;12.26;67.77;99407.53;1698917;84;20194;-86
2022/10/30 10:16:50;;;;;;;;;;;;;;;12.28;68.01;99418.02;1694836;84;20202;-87
2022/10/30 10:19:53;;;;;;;;;;;;;;;12.26;67.66;99413.66;1699027;84;21163;-87
2022/10/30 10:22:23;;;;;;;;;;;;;;;12.24;67.75;99416.83;1699110;84;20201;-86
2022/10/30 10:24:50;;;;;;;;;;;;;;;12.24;68.10;99415.51;1699061;84;20231;-86
2022/10/30 10:27:26;;;;;;;;;;;;;;;12.24;68.12;99416.83;1699455;84;20194;-86
2022/10/30 10:30:14;;;;;;;;;;;;;;;12.25;68.18;99411.96;1698187;84;20198;-86
2022/10/30 10:32:44;;;;;;;;;;;;;;;12.26;68.36;99408.38;1693691;84;21121;-85
2022/10/30 10:35:40;;;;;;;;;;;;;;;12.25;68.47;99411.08;1693543;84;20210;-85
2022/10/30 10:38:29;;;;;;;;;;;;;;;12.22;69.06;99409.45;1692967;84;20198;-84
2022/10/30 10:41:20;;;;;;;;;;;;;;;12.21;68.91;99416.95;1693641;84;20773;-87
2022/10/30 10:44:07;;;;;;;;;;;;;;;12.20;68.62;99409.95;1693648;84;20150;-83
2022/10/30 10:46:58;;;;;;;;;;;;;;;12.21;68.42;99402.92;1693670;84;21112;-84
2022/10/30 10:49:58;;;;;;;;;;;;;;;12.20;68.50;99409.95;1693633;84;20496;-88
2022/10/30 10:52:37;;;;;;;;;;;;;;;12.24;68.31;99407.59;1693765;84;20239;-86
2022/10/30 10:55:06;;;;;;;;;;;;;;;12.22;68.03;99413.41;1694075;84;20170;-84
2022/10/30 10:57:34;;;;;;;;;;;;;;;12.22;68.59;99407.25;1671708;84;20175;-84
2022/10/30 11:00:07;;;;;;;;;;;;;;;12.22;68.99;99408.13;1693239;83;21145;-86
2022/10/30 11:02:41;;;;;;;;;;;;;;;12.22;68.49;99392.30;1690743;84;20194;-88
2022/10/30 11:05:15;;;;;;;;;;;;;;;12.25;68.67;99395.25;1694029;84;20234;-84
2022/10/30 11:07:46;;;;;;;;;;;;;;;12.30;68.67;99385.83;1693960;84;20753;-85
2022/10/30 11:10:14;;;;;;;;;;;;;;;12.35;68.31;99399.67;1693538;84;20630;-85
2022/10/30 11:12:42;;;;;;;;;;;;;;;12.36;67.93;99396.12;1693656;83;21021;-83
2022/10/30 11:15:29;;;;;;;;;;;;;;;12.37;67.06;99392.54;1693740;84;20516;-85
2022/10/30 11:18:01;;;;;;;;;;;;;;;12.37;67.12;99375.39;1693758;84;20634;-86
2022/10/30 11:20:54;;;;;;;;;;;;;;;12.38;67.28;99372.69;1693478;84;20231;-84
2022/10/30 11:23:32;;;;;;;;;;;;;;;12.42;66.67;99372.08;1693567;84;20261;-82
2022/10/30 11:26:00;;;;;;;;;;;;;;;12.45;66.83;99359.61;1693993;84;21107;-86
2022/10/30 11:28:33;;;;;;;;;;;;;;;12.50;66.52;99360.73;1693734;84;20175;-84
2022/10/30 11:31:27;;;;;;;;;;;;;;;12.53;66.21;99372.47;1693877;84;20148;-86
2022/10/30 11:33:54;;;;;;;;;;;;;;;12.52;66.51;99360.19;1699726;84;20156;-86
2022/10/30 11:36:22;;;;;;;;;;;;;;;12.52;66.59;99362.83;1699332;84;20134;-86
2022/10/30 11:38:49;;;;;;;;;;;;;;;12.50;66.36;99355.45;1698827;84;21325;-86
2022/10/30 11:41:16;;;;;;;;;;;;;;;12.48;66.75;99351.19;1699487;84;20233;-87
2022/10/30 11:43:44;;;;;;;;;;;;;;;12.48;67.32;99352.03;1699485;84;20195;-86
2022/10/30 11:46:16;;;;;;;;;;;;;;;12.50;67.43;99340.09;1699508;84;20206;-85
2022/10/30 11:48:45;;;;;;;;;;;;;;;12.54;67.43;99342.53;1699352;84;20221;-86
2022/10/30 11:51:12;;;;;;;;;;;;;;;12.60;66.78;99358.06;1699268;84;21146;-86
2022/10/30 11:53:44;;;;;;;;;;;;;;;12.61;66.93;99349.70;1699570;84;20227;-86
2022/10/30 11:56:19;;;;;;;;;;;;;;;12.61;67.10;99357.62;1699449;84;20442;-86
2022/10/30 11:58:47;;;;;;;;;;;;;;;12.60;66.80;99356.73;1699721;84;20226;-86
2022/10/30 12:01:24;;;;;;;;;;;;;;;12.61;66.79;99359.78;1699497;84;20203;-81
2022/10/30 12:03:51;;;;;;;;;;;;;;;12.61;66.67;99358.47;1699441;84;21561;-84
2022/10/30 12:06:27;;;;;;;;;;;;;;;12.61;65.92;99355.83;1669593;84;20168;-85
2022/10/30 12:09:03;;;;;;;;;;;;;;;12.61;66.53;99354.51;1699638;84;20229;-86
2022/10/30 12:11:31;;;;;;;;;;;;;;;12.60;66.29;99352.78;1699281;84;20209;-85
2022/10/30 12:13:58;;;;;;;;;;;;;;;12.60;66.29;99359.38;1699538;84;20531;-84
2022/10/30 12:16:24;;;;;;;;;;;;;;;12.58;66.00;99366.52;1699175;84;21143;-86
2022/10/30 12:18:58;;;;;;;;;;;;;;;12.54;65.62;99357.05;1699497;84;20202;-86
2022/10/30 12:21:26;;;;;;;;;;;;;;;12.48;65.70;99350.70;1699296;84;20948;-87
2022/10/30 12:23:56;;;;;;;;;;;;;;;12.45;66.19;99348.20;1699492;84;20611;-88
2022/10/30 12:26:24;;;;;;;;;;;;;;;12.43;66.15;99343.47;1698868;84;20648;-86
2022/10/30 12:28:54;;;;;;;;;;;;;;;12.42;66.40;99342.62;1699388;84;21142;-86
2022/10/30 12:31:24;;;;;;;;;;;;;;;12.43;66.43;99340.36;1697018;84;20174;-85
2022/10/30 12:33:53;;;;;;;;;;;;;;;12.45;66.80;99350.37;1693676;84;20169;-83
2022/10/30 12:36:22;;;;;;;;;;;;;;;12.55;66.28;99342.90;1693347;84;20430;-86
2022/10/30 12:38:51;;;;;;;;;;;;;;;12.69;66.38;99330.37;1693721;84;20417;-86
2022/10/30 12:41:25;;;;;;;;;;;;;;;12.79;65.74;99332.13;1693880;84;21188;-83
2022/10/30 12:43:58;;;;;;;;;;;;;;;12.84;64.34;99343.34;1693567;84;20202;-85
2022/10/30 12:46:32;;;;;;;;;;;;;;;12.84;63.66;99347.30;1671936;84;20532;-84
2022/10/30 12:49:14;;;;;;;;;;;;;;;12.80;63.25;99352.34;1693781;84;20233;-88
2022/10/30 12:52:02;;;;;;;;;;;;;;;12.74;63.78;99334.13;1693769;84;20179;-85
2022/10/30 12:54:49;;;;;;;;;;;;;;;12.75;64.41;99337.18;1693686;84;21113;-85
2022/10/30 12:57:22;;;;;;;;;;;;;;;12.74;64.76;99349.97;1693884;84;20242;-82
2022/10/30 13:00:09;;;;;;;;;;;;;;;12.70;64.78;99361.62;1693608;84;20278;-85
2022/10/30 13:02:45;;;;;;;;;;;;;;;12.63;64.72;99353.97;1693541;84;20218;-87
2022/10/30 13:05:31;;;;;;;;;;;;;;;12.57;65.56;99359.52;1693697;84;20238;-86
2022/10/30 13:08:17;;;;;;;;;;;;;;;12.52;65.59;99356.23;1693880;84;21105;-87
2022/10/30 13:10:53;;;;;;;;;;;;;;;12.49;65.29;99356.39;1693488;84;20144;-86